Time;durP1;ratioP1;P1;durP2;ratioP2;P2;SDS_P1;SDS_P2;PMS_P1;PMS_P2;Temp;Humidity;BMP_temperature;BMP_pressure;BME280_temperature;BME280_humidity;BME280_pressure;Samples;Min_cycle;Max_cycle;Signal;HPM_P1;HPM_P2
2021/12/25 00:02:16;;;;;;;1.10;0.67;;;;;;;-6.35;88.35;98279.41;1746439;80;20997;-70
2021/12/25 00:04:43;;;;;;;3.07;1.03;;;;;;;-6.32;88.35;98284.48;1735473;80;20995;-70
2021/12/25 00:07:09;;;;;;;2.93;1.17;;;;;;;-6.32;88.30;98288.29;1729979;81;21071;-70
2021/12/25 00:09:36;;;;;;;7.27;1.77;;;;;;;-6.35;88.11;98289.58;1735596;80;21194;-70
2021/12/25 00:12:03;;;;;;;3.00;2.23;;;;;;;-6.39;88.08;98303.11;1737294;80;20935;-68
2021/12/25 00:14:30;;;;;;;5.60;2.47;;;;;;;-6.41;88.03;98297.18;1740322;80;21027;-70
2021/12/25 00:16:58;;;;;;;7.35;1.75;;;;;;;-6.46;87.97;98303.98;1737427;80;20920;-70
2021/12/25 00:19:25;;;;;;;2.92;1.12;;;;;;;-6.53;87.86;98311.59;1741551;80;21279;-69
2021/12/25 00:21:52;;;;;;;4.53;2.15;;;;;;;-6.60;87.81;98309.93;1714020;80;21466;-70
2021/12/25 00:24:18;;;;;;;2.97;1.00;;;;;;;-6.64;87.93;98320.92;1744655;80;21149;-69
2021/12/25 00:34:38;;;;;;;2.70;1.72;;;;;;;-6.72;88.23;98332.80;1816847;77;20993;-69
2021/12/25 00:37:06;;;;;;;3.42;2.30;;;;;;;-6.71;88.26;98337.02;1779980;77;21383;-70
2021/12/25 00:39:33;;;;;;;4.20;2.20;;;;;;;-6.72;88.17;98335.34;1798711;77;21387;-70
2021/12/25 00:42:02;;;;;;;8.73;2.17;;;;;;;-6.75;88.09;98332.77;1810302;77;20920;-69
2021/12/25 00:44:29;;;;;;;3.87;1.87;;;;;;;-6.80;88.06;98330.69;1786628;78;21955;-70
2021/12/25 00:46:57;;;;;;;8.33;2.37;;;;;;;-6.85;87.94;98332.37;1757536;80;21025;-69
2021/12/25 00:49:25;;;;;;;6.20;3.83;;;;;;;-6.94;87.83;98331.95;1777873;79;20940;-70
2021/12/25 00:51:52;;;;;;;5.85;2.10;;;;;;;-7.03;87.75;98339.14;1809829;77;20875;-69
2021/12/25 00:54:19;;;;;;;5.60;1.90;;;;;;;-7.13;87.71;98331.08;1812296;77;21449;-69
2021/12/25 00:56:46;;;;;;;3.92;1.40;;;;;;;-7.21;87.65;98340.37;1809921;77;21101;-69
2021/12/25 00:59:13;;;;;;;6.83;4.45;;;;;;;-7.28;87.73;98339.92;1809995;77;20875;-69
2021/12/25 01:01:39;;;;;;;5.97;2.10;;;;;;;-7.34;87.76;98341.19;1811061;77;20942;-69
2021/12/25 01:04:06;;;;;;;3.67;1.50;;;;;;;-7.39;87.79;98342.86;1802309;77;20924;-70
2021/12/25 01:06:33;;;;;;;6.80;4.80;;;;;;;-7.46;87.78;98347.92;1792870;78;20876;-69
2021/12/25 01:08:59;;;;;;;8.80;2.83;;;;;;;-7.51;87.81;98352.13;1794901;77;21246;-69
2021/12/25 01:11:29;;;;;;;5.57;1.80;;;;;;;-7.52;87.94;98363.55;1804803;77;21437;-69
2021/12/25 01:14:03;;;;;;;3.45;1.00;;;;;;;-7.53;87.94;98360.59;1812102;77;21236;-69
2021/12/25 01:30:02;;;;;;;8.15;2.17;;;;;;;-7.73;87.91;98389.64;1810612;77;21524;-69
2021/12/25 01:32:54;;;;;;;3.47;1.50;;;;;;;-7.74;87.99;98391.77;1810997;77;35135;-69
2021/12/25 01:37:59;;;;;;;7.03;1.75;;;;;;;-7.79;88.00;98402.30;1816634;77;20950;-69
2021/12/25 01:48:18;;;;;;;3.30;2.00;;;;;;;-7.88;88.03;98435.61;1806190;77;21411;-70
2021/12/25 01:50:45;;;;;;;4.95;2.10;;;;;;;-7.91;87.98;98430.53;1803179;77;20938;-70
2021/12/25 01:53:13;;;;;;;2.75;1.30;;;;;;;-7.92;88.00;98433.91;1810406;77;20929;-70
2021/12/25 01:55:39;;;;;;;;;;;;;;;-7.94;87.91;98439.38;1809142;77;20987;-70
2021/12/25 01:58:06;;;;;;;4.63;1.30;;;;;;;-7.98;87.92;98443.14;1800358;78;20106;-70
2021/12/25 02:00:41;;;;;;;2.95;1.10;;;;;;;-8.01;87.89;98444.00;1810494;77;21526;-69
2021/12/25 02:03:10;;;;;;;3.27;1.80;;;;;;;-8.08;87.84;98443.52;1811188;77;20922;-69
2021/12/25 02:05:38;;;;;;;3.98;1.20;;;;;;;-8.11;87.82;98457.44;1807667;77;20890;-70
2021/12/25 02:08:05;;;;;;;3.75;1.60;;;;;;;-8.15;87.83;98455.70;1785323;77;22256;-69
2021/12/25 02:10:32;;;;;;;2.80;1.20;;;;;;;-8.18;87.84;98454.41;1807143;77;21297;-69
2021/12/25 02:13:01;;;;;;;3.45;1.52;;;;;;;-8.21;87.90;98460.73;1804407;77;21268;-70
2021/12/25 02:15:28;;;;;;;1.35;0.88;;;;;;;-8.18;88.01;98469.61;1804885;77;21018;-70
2021/12/25 02:20:36;;;;;;;4.45;1.20;;;;;;;-8.13;88.12;98469.23;1769693;79;20923;-69
2021/12/25 02:23:03;;;;;;;2.08;1.22;;;;;;;-8.07;88.29;98461.67;1742948;80;21008;-69
2021/12/25 02:25:34;;;;;;;2.27;0.93;;;;;;;-7.98;88.38;98464.28;1808017;77;21112;-70
2021/12/25 02:28:03;;;;;;;4.62;1.77;;;;;;;-7.88;88.51;98468.55;1797650;77;21031;-70
2021/12/25 02:30:30;;;;;;;3.12;1.60;;;;;;;-7.76;88.58;98472.00;1816528;77;20888;-70
2021/12/25 02:32:58;;;;;;;2.50;1.32;;;;;;;-7.63;88.64;98477.99;1804480;77;22700;-70
2021/12/25 02:35:26;;;;;;;4.15;1.95;;;;;;;-7.55;88.64;98482.27;1802193;77;20939;-69
2021/12/25 02:37:53;;;;;;;4.90;1.50;;;;;;;-7.43;88.67;98480.20;1795213;77;22008;-70
2021/12/25 02:40:20;;;;;;;3.55;0.82;;;;;;;-7.33;88.67;98478.57;1805753;77;20870;-70
2021/12/25 02:42:47;;;;;;;2.27;1.02;;;;;;;-7.27;88.53;98484.93;1805150;77;21605;-70
2021/12/25 02:45:20;;;;;;;2.77;1.43;;;;;;;-7.25;88.33;98485.36;1812176;77;20943;-70
2021/12/25 02:47:51;;;;;;;2.72;1.82;;;;;;;-7.21;88.34;98484.95;1795248;77;20908;-70
2021/12/25 02:50:30;;;;;;;2.80;1.82;;;;;;;-7.16;88.40;98489.63;1787613;78;21533;-70
2021/12/25 02:53:00;;;;;;;3.62;1.27;;;;;;;-7.13;88.32;98490.90;1810423;77;22076;-70
2021/12/25 02:55:28;;;;;;;2.52;1.10;;;;;;;-7.12;88.27;98490.05;1821935;77;20932;-70
2021/12/25 02:57:56;;;;;;;3.98;1.17;;;;;;;-7.10;88.18;98501.05;1810034;77;20852;-70
2021/12/25 03:00:27;;;;;;;3.12;1.02;;;;;;;-7.11;88.17;98503.18;1813451;77;20979;-70
2021/12/25 03:02:55;;;;;;;2.17;0.98;;;;;;;-7.13;88.10;98495.98;1786817;77;21161;-70
2021/12/25 03:05:22;;;;;;;2.92;2.67;;;;;;;-7.14;88.13;98501.91;1813651;77;21511;-70
2021/12/25 03:07:48;;;;;;;4.50;1.90;;;;;;;-7.12;88.16;98493.02;1817064;77;20962;-70
2021/12/25 03:10:17;;;;;;;3.70;1.30;;;;;;;-7.11;88.21;98501.91;1792471;77;20906;-70
2021/12/25 03:12:54;;;;;;;4.87;1.67;;;;;;;-7.05;88.35;98509.54;1816739;77;20899;-69
2021/12/25 03:15:26;;;;;;;4.85;1.27;;;;;;;-6.99;88.43;98501.94;1808142;77;21915;-70
2021/12/25 03:17:46;;;;;;;2.58;1.27;;;;;;;-6.89;88.50;98504.50;1799596;78;20946;-69
2021/12/25 03:20:13;;;;;;;3.27;1.12;;;;;;;-6.83;88.52;98507.08;1804651;77;21054;-70
2021/12/25 03:22:40;;;;;;;4.42;1.40;;;;;;;-6.74;88.54;98515.14;1807652;77;28602;-69
2021/12/25 03:25:10;;;;;;;2.98;2.25;;;;;;;-6.67;88.58;98504.98;1803482;77;20976;-69
2021/12/25 03:27:40;;;;;;;3.70;1.42;;;;;;;-6.58;88.62;98512.63;1817763;77;21062;-70
2021/12/25 03:30:09;;;;;;;2.60;1.05;;;;;;;-6.48;88.63;98517.72;1812559;77;20847;-70
2021/12/25 03:32:36;;;;;;;2.87;1.47;;;;;;;-6.41;88.58;98518.13;1814763;77;20867;-70
2021/12/25 03:35:03;;;;;;;2.62;1.65;;;;;;;-6.35;88.56;98523.25;1809632;77;20928;-70
2021/12/25 03:37:30;;;;;;;1.47;0.90;;;;;;;-6.29;88.56;98521.14;1802980;77;21560;-70
2021/12/25 03:39:56;;;;;;;3.85;1.87;;;;;;;-6.23;88.54;98533.41;1807308;77;21075;-70
2021/12/25 03:42:23;;;;;;;2.00;1.43;;;;;;;-6.18;88.51;98529.19;1814155;77;21007;-70
2021/12/25 03:44:50;;;;;;;6.05;1.40;;;;;;;-6.15;88.41;98534.27;1806049;77;20880;-69
2021/12/25 03:47:29;;;;;;;6.20;4.43;;;;;;;-6.16;88.25;98542.75;1792817;78;20926;-69
2021/12/25 03:58:00;;;;;;;5.42;1.22;;;;;;;-6.18;88.38;98555.86;1794720;77;20892;-69
2021/12/25 04:00:29;;;;;;;2.87;2.40;;;;;;;-6.14;88.40;98561.36;1790421;78;20901;-69
2021/12/25 04:02:56;;;;;;;4.55;1.22;;;;;;;-6.11;88.39;98557.55;1800378;77;21002;-69
2021/12/25 04:05:25;;;;;;;1.80;0.90;;;;;;;-6.07;88.35;98563.92;1803981;77;21362;-69
2021/12/25 04:08:05;;;;;;;1.67;0.88;;;;;;;-6.06;88.31;98568.16;1808585;77;20915;-69
2021/12/25 04:10:34;;;;;;;2.37;1.37;;;;;;;-6.06;88.25;98561.80;1800153;77;21103;-70
2021/12/25 04:13:04;;;;;;;2.37;1.50;;;;;;;-6.05;88.26;98564.75;1807377;77;20976;-69
2021/12/25 04:15:31;;;;;;;3.35;1.35;;;;;;;-6.06;88.20;98560.53;1813642;77;20947;-69
2021/12/25 04:17:57;;;;;;;4.30;1.80;;;;;;;-6.07;88.18;98559.69;1806656;77;21056;-69
2021/12/25 04:20:24;;;;;;;2.97;1.43;;;;;;;-6.06;88.21;98560.53;1809067;77;20953;-69
2021/12/25 04:22:58;;;;;;;4.95;1.25;;;;;;;-6.07;88.20;98555.88;1810470;77;20903;-70
2021/12/25 04:25:24;;;;;;;3.95;0.85;;;;;;;-6.05;88.16;98560.52;1802645;77;21032;-70
2021/12/25 04:27:48;;;;;;;1.55;0.93;;;;;;;-6.03;88.24;98565.61;1804270;77;22174;-70
2021/12/25 04:30:30;;;;;;;3.77;1.50;;;;;;;-6.02;88.24;98559.67;1810288;77;22064;-69
2021/12/25 04:49:48;;;;;;;3.15;0.98;;;;;;;-5.90;88.03;98567.28;1795477;78;20938;-70
2021/12/25 05:03:09;;;;;;;2.62;1.37;;;;;;;-5.93;88.13;98573.21;1795853;77;21778;-70
2021/12/25 05:05:24;;;;;;;1.87;0.78;;;;;;;-5.90;88.26;98574.91;1812721;77;20967;-69
2021/12/25 05:07:50;;;;;;;3.17;1.17;;;;;;;-5.87;88.30;98574.91;1809310;77;20965;-69
2021/12/25 05:10:17;;;;;;;4.67;1.20;;;;;;;-5.87;88.20;98574.91;1794568;77;21185;-69
2021/12/25 05:12:44;;;;;;;2.20;1.62;;;;;;;-5.85;88.26;98579.15;1783577;77;21358;-69
2021/12/25 05:15:11;;;;;;;4.53;1.90;;;;;;;-5.81;88.29;98584.23;1788496;77;20941;-69
2021/12/25 05:17:38;;;;;;;2.25;1.17;;;;;;;-5.79;88.28;98583.39;1797270;77;21628;-69
2021/12/25 05:20:05;;;;;;;3.90;1.07;;;;;;;-5.92;88.25;98556.27;1798704;77;20852;-69
2021/12/25 05:22:32;;;;;;;3.27;1.30;;;;;;;-5.76;88.20;98587.20;1805697;77;21472;-69
2021/12/25 05:24:58;;;;;;;1.60;0.90;;;;;;;-5.75;88.14;98596.51;1796703;77;21101;-69
2021/12/25 05:27:25;;;;;;;3.80;1.23;;;;;;;-5.78;88.02;98593.97;1794172;77;22229;-69
2021/12/25 05:29:51;;;;;;;2.40;1.37;;;;;;;-5.81;87.90;98595.24;1789890;78;20973;-69
2021/12/25 05:32:19;;;;;;;3.43;1.70;;;;;;;-5.89;87.79;98597.77;1787251;77;21531;-69
2021/12/25 05:34:45;;;;;;;3.05;1.75;;;;;;;-5.98;87.66;98599.51;1797476;77;21063;-69
2021/12/25 05:37:13;;;;;;;2.72;1.40;;;;;;;-6.06;87.73;98603.73;1797208;77;21393;-69
2021/12/25 05:39:42;;;;;;;4.10;1.30;;;;;;;-6.15;87.79;98596.52;1812306;77;21066;-69
2021/12/25 05:42:09;;;;;;;4.22;1.82;;;;;;;-6.18;87.93;98602.87;1800618;77;20922;-69
2021/12/25 05:44:36;;;;;;;6.33;1.62;;;;;;;-6.18;88.08;98609.22;1797241;77;20978;-69
2021/12/25 05:47:03;;;;;;;1.85;1.07;;;;;;;-6.19;88.08;98606.27;1807799;77;21077;-69
2021/12/25 05:49:29;;;;;;;5.08;1.52;;;;;;;-6.21;88.04;98607.95;1790402;77;21577;-69
2021/12/25 05:51:56;;;;;;;3.03;1.47;;;;;;;-6.24;87.97;98611.75;1800310;77;20948;-69
2021/12/25 05:54:23;;;;;;;2.65;1.30;;;;;;;-6.27;87.90;98618.10;1801081;77;21170;-69
2021/12/25 05:56:49;;;;;;;6.63;1.47;;;;;;;-6.31;87.94;98622.30;1804357;77;21017;-69
2021/12/25 05:59:16;;;;;;;4.45;1.90;;;;;;;-6.32;87.97;98626.12;1806548;77;22217;-69
2021/12/25 06:01:43;;;;;;;3.25;1.80;;;;;;;-6.33;87.93;98620.60;1807367;77;20879;-69
2021/12/25 06:04:09;;;;;;;8.33;2.67;;;;;;;-6.31;88.00;98624.00;1810602;77;20882;-69
2021/12/25 06:06:39;;;;;;;6.73;3.93;;;;;;;-6.30;88.14;98618.09;1809888;77;20950;-69
2021/12/25 06:09:09;;;;;;;11.08;5.55;;;;;;;-6.26;88.23;98631.64;1813859;77;20938;-69
2021/12/25 06:11:37;;;;;;;5.00;3.05;;;;;;;-6.26;88.19;98624.86;1757646;79;21037;-68
2021/12/25 06:14:16;;;;;;;;;;;;;;;-6.29;88.10;98624.86;1762026;79;21477;-69
2021/12/25 06:16:38;;;;;;;10.45;4.90;;;;;;;-6.30;88.10;98630.80;1804565;77;20618;-69
2021/12/25 06:19:07;;;;;;;8.75;4.37;;;;;;;-6.27;88.28;98630.80;1803304;77;20935;-69
2021/12/25 06:21:33;;;;;;;5.07;2.23;;;;;;;-6.21;88.28;98629.55;1808357;78;21635;-68
2021/12/25 06:24:02;;;;;;;5.08;1.65;;;;;;;-6.17;88.29;98631.23;1784302;78;21077;-68
2021/12/25 06:26:30;;;;;;;4.40;1.40;;;;;;;-6.11;88.31;98627.42;1802639;77;20949;-68
2021/12/25 06:28:57;;;;;;;3.65;1.40;;;;;;;-6.08;88.34;98630.40;1810272;77;20921;-68
2021/12/25 06:31:23;;;;;;;3.65;1.10;;;;;;;-6.01;88.42;98630.00;1812854;77;20985;-69
2021/12/25 06:33:51;;;;;;;6.20;1.20;;;;;;;-5.97;88.28;98636.77;1783090;78;21616;-69
2021/12/25 06:36:18;;;;;;;3.02;1.15;;;;;;;-5.92;88.34;98632.52;1801796;77;21872;-69
2021/12/25 06:38:44;;;;;;;4.22;1.17;;;;;;;-5.86;88.45;98636.33;1813079;77;20959;-70
2021/12/25 06:41:12;;;;;;;2.77;0.93;;;;;;;-5.81;88.50;98634.64;1802308;77;20947;-69
2021/12/25 06:43:40;;;;;;;2.27;0.90;;;;;;;-5.77;88.37;98641.45;1818576;77;20969;-70
2021/12/25 06:46:08;;;;;;;2.00;0.98;;;;;;;-5.76;88.35;98643.56;1804122;77;21609;-68
2021/12/25 06:48:35;;;;;;;1.60;1.00;;;;;;;-5.71;88.29;98646.53;1812973;77;21700;-69
2021/12/25 06:51:02;;;;;;;3.25;1.50;;;;;;;-5.66;88.30;98651.20;1790609;78;21497;-69
2021/12/25 06:53:28;;;;;;;2.50;1.00;;;;;;;-5.63;88.26;98646.12;1809290;77;20962;-68
2021/12/25 06:55:55;;;;;;;2.62;1.00;;;;;;;-5.59;88.19;98647.39;1794555;77;21149;-69
2021/12/25 06:58:22;;;;;;;4.83;1.67;;;;;;;-5.58;88.18;98655.42;1808476;77;20896;-69
2021/12/25 07:00:50;;;;;;;2.85;1.77;;;;;;;-5.59;88.04;98646.11;1795562;77;21111;-68
2021/12/25 07:03:17;;;;;;;2.95;2.65;;;;;;;-5.58;88.15;98649.06;1809834;77;20963;-69
2021/12/25 07:05:43;;;;;;;4.00;1.27;;;;;;;-5.57;88.09;98650.75;1810947;77;20925;-69
2021/12/25 07:08:10;;;;;;;2.70;1.20;;;;;;;-5.57;88.01;98660.92;1808072;77;21899;-69
2021/12/25 07:10:37;;;;;;;2.53;1.30;;;;;;;-5.61;87.91;98657.55;1804282;77;20962;-69
2021/12/25 07:13:04;;;;;;;2.90;1.80;;;;;;;-5.64;87.82;98658.38;1796460;77;21051;-69
2021/12/25 07:15:30;;;;;;;3.47;1.98;;;;;;;-5.70;87.73;98662.20;1801656;77;20930;-69
2021/12/25 07:17:57;;;;;;;3.37;1.40;;;;;;;-5.76;87.72;98655.84;1795727;77;21049;-69
2021/12/25 07:20:24;;;;;;;5.80;1.85;;;;;;;-5.82;87.60;98664.74;1803085;77;20926;-69
2021/12/25 07:22:50;;;;;;;6.40;3.23;;;;;;;-5.90;87.58;98662.61;1802021;77;21094;-69
2021/12/25 07:25:17;;;;;;;15.20;7.53;;;;;;;-5.93;87.66;98656.28;1794926;77;21107;-69
2021/12/25 07:27:43;;;;;;;7.97;4.30;;;;;;;-5.90;87.88;98670.23;1769499;79;20998;-69
2021/12/25 07:30:11;;;;;;;2.97;1.53;;;;;;;-5.78;88.14;98667.70;1799874;77;20944;-68
2021/12/25 07:32:37;;;;;;;;;;;;;;;-5.71;88.23;98660.52;1789532;78;21029;-68
2021/12/25 07:35:06;;;;;;;7.53;2.40;;;;;;;-5.62;88.39;98657.97;1801077;77;20148;-69
2021/12/25 07:37:33;;;;;;;5.65;3.17;;;;;;;-5.51;88.58;98659.69;1803995;77;21030;-69
2021/12/25 07:40:04;;;;;;;5.00;1.60;;;;;;;-5.41;88.59;98666.44;1796620;78;20955;-70
2021/12/25 07:42:30;;;;;;;7.50;2.30;;;;;;;-5.36;88.51;98671.11;1789946;78;20969;-69
2021/12/25 07:45:04;;;;;;;4.80;2.27;;;;;;;-5.29;88.45;98672.82;1806638;77;22018;-69
2021/12/25 07:47:27;;;;;;;6.33;2.62;;;;;;;-5.26;88.38;98671.55;1802798;77;21314;-69
2021/12/25 07:49:57;;;;;;;8.87;2.97;;;;;;;-5.18;88.42;98673.66;1811021;77;21481;-69
2021/12/25 07:52:23;;;;;;;4.50;2.25;;;;;;;-5.03;88.50;98678.30;1798947;77;21024;-69
2021/12/25 07:54:50;;;;;;;8.65;3.65;;;;;;;-4.85;88.60;98676.98;1808208;77;21034;-69
2021/12/25 07:57:17;;;;;;;12.03;3.40;;;;;;;-4.78;88.27;98687.59;1801358;77;20950;-69
2021/12/25 07:59:43;;;;;;;4.20;2.80;;;;;;;-4.79;88.09;98685.91;1786646;77;20958;-68
2021/12/25 08:02:10;;;;;;;10.20;2.35;;;;;;;-4.84;88.05;98690.16;1804222;77;21957;-69
2021/12/25 08:04:37;;;;;;;6.83;2.45;;;;;;;-4.91;88.07;98688.45;1811676;77;20952;-68
2021/12/25 08:07:04;;;;;;;7.47;3.12;;;;;;;-4.92;88.18;98686.77;1792419;78;21930;-69
2021/12/25 08:09:32;;;;;;;8.50;4.00;;;;;;;-4.92;88.30;98686.77;1811530;77;20965;-69
2021/12/25 08:12:01;;;;;;;7.75;3.00;;;;;;;-4.92;88.33;98692.30;1801410;77;21536;-69
2021/12/25 08:14:48;;;;;;;7.05;3.17;;;;;;;-4.93;88.39;98699.06;1742393;80;22558;-69
2021/12/25 08:17:17;;;;;;;7.28;2.85;;;;;;;-4.92;88.50;98677.86;1757805;79;20950;-69
2021/12/25 08:19:46;;;;;;;13.68;3.98;;;;;;;-4.86;88.57;98681.66;1752707;79;20988;-69
2021/12/25 08:22:13;;;;;;;17.00;5.80;;;;;;;-4.86;88.47;98682.94;1793448;77;21015;-69
2021/12/25 08:24:45;;;;;;;23.45;6.50;;;;;;;-4.83;88.45;98684.20;1805125;77;21009;-70
2021/12/25 08:27:11;;;;;;;14.83;5.30;;;;;;;-4.76;88.47;98687.16;1799982;77;21507;-69
2021/12/25 08:29:38;;;;;;;13.70;5.13;;;;;;;-4.62;88.69;98695.17;1788998;78;21521;-69
2021/12/25 08:32:05;;;;;;;12.35;4.20;;;;;;;-4.33;89.14;98701.47;1800048;77;20986;-70
2021/12/25 08:34:33;;;;;;;7.87;3.83;;;;;;;-4.04;89.19;98696.23;1806078;77;21594;-70
2021/12/25 08:37:00;;;;;;;7.45;3.60;;;;;;;-3.91;88.85;98709.34;1807633;77;21966;-70
2021/12/25 08:39:27;;;;;;;4.10;3.08;;;;;;;-3.84;88.69;98696.98;1802687;77;21069;-70
2021/12/25 08:42:02;;;;;;;6.87;3.12;;;;;;;-3.76;88.65;98703.30;1800300;77;20959;-70
2021/12/25 08:44:53;;;;;;;3.98;2.47;;;;;;;-3.73;88.53;98704.98;1811054;77;21029;-69
2021/12/25 08:46:56;;;;;;;6.53;2.30;;;;;;;-3.75;88.52;98699.03;1797903;77;21922;-70
2021/12/25 08:49:29;;;;;;;4.10;2.20;;;;;;;-3.77;88.46;98699.50;1811339;77;21610;-69
2021/12/25 08:51:58;;;;;;;4.60;1.85;;;;;;;-3.77;88.66;98708.42;1803542;77;21023;-69
2021/12/25 08:54:24;;;;;;;4.17;2.00;;;;;;;-3.69;88.77;98702.84;1802097;77;21124;-70
2021/12/25 08:56:51;;;;;;;3.52;1.47;;;;;;;-3.58;88.87;98696.38;1803557;77;21623;-70
2021/12/25 08:59:18;;;;;;;2.40;1.60;;;;;;;-3.50;88.87;98694.22;1806224;77;21378;-69
2021/12/25 09:01:45;;;;;;;1.70;1.10;;;;;;;-3.42;88.85;98701.39;1813091;77;21532;-70
2021/12/25 09:04:12;;;;;;;2.92;1.15;;;;;;;-3.26;88.92;98707.64;1811187;77;21579;-69
2021/12/25 09:06:39;;;;;;;3.45;1.42;;;;;;;-3.00;89.33;98704.42;1811158;77;20966;-70
2021/12/25 09:09:09;;;;;;;5.12;1.50;;;;;;;-2.77;89.26;98711.89;1807709;77;20987;-69
2021/12/25 09:11:38;;;;;;;3.02;1.82;;;;;;;-2.77;88.74;98711.05;1793668;77;20879;-69
2021/12/25 09:14:06;;;;;;;6.33;2.05;;;;;;;-2.85;88.53;98720.50;1794483;77;20931;-70
2021/12/25 09:16:34;;;;;;;4.83;1.87;;;;;;;-2.95;88.51;98712.89;1796906;77;21078;-70
2021/12/25 09:19:01;;;;;;;4.83;2.10;;;;;;;-3.04;88.47;98712.98;1810965;77;20958;-70
2021/12/25 09:21:28;;;;;;;6.08;2.95;;;;;;;-3.11;88.55;98727.08;1801903;77;21969;-70
2021/12/25 09:23:55;;;;;;;;;;;;;;;-3.14;88.67;98726.67;1811920;77;20975;-69
2021/12/25 09:26:22;;;;;;;4.10;2.30;;;;;;;-3.20;88.58;98720.34;1805483;77;20126;-69
2021/12/25 09:28:52;;;;;;;4.33;2.58;;;;;;;-3.19;88.90;98715.68;1802940;77;22469;-69
2021/12/25 09:31:22;;;;;;;6.15;2.80;;;;;;;-3.15;88.92;98721.16;1798027;78;21876;-69
2021/12/25 09:34:03;;;;;;;7.50;2.75;;;;;;;-3.19;88.87;98728.45;1794340;77;21068;-69
2021/12/25 09:36:34;;;;;;;4.78;2.72;;;;;;;-3.21;89.02;98733.55;1805053;77;20981;-69
2021/12/25 09:39:05;;;;;;;4.47;2.58;;;;;;;-3.22;89.00;98729.72;1801826;77;21407;-69
2021/12/25 09:41:33;;;;;;;4.83;2.47;;;;;;;-3.17;89.16;98726.70;1798372;77;21180;-69
2021/12/25 09:44:03;;;;;;;5.80;2.45;;;;;;;-3.09;89.34;98727.49;1803635;77;20923;-69
2021/12/25 09:46:30;;;;;;;7.12;2.85;;;;;;;-3.04;89.21;98730.86;1814902;77;20934;-70
2021/12/25 09:48:58;;;;;;;4.25;2.77;;;;;;;-3.00;89.17;98724.84;1810033;77;21898;-69
2021/12/25 09:51:26;;;;;;;6.62;3.50;;;;;;;-2.93;89.25;98743.55;1810594;77;20926;-69
2021/12/25 09:54:27;;;;;;;;;;;;;;;;;;;;;
2021/12/25 09:56:57;;;;;;;3.05;2.02;;;;;;;-2.80;89.26;98742.98;1736983;80;20912;-69
2021/12/25 09:59:26;;;;;;;5.33;2.25;;;;;;;-2.78;89.11;98748.94;1720408;80;20999;-69
2021/12/25 10:01:59;;;;;;;7.15;3.92;;;;;;;-2.83;88.94;98750.68;1744323;80;21042;-69
2021/12/25 10:04:39;;;;;;;6.58;2.20;;;;;;;-2.87;89.04;98746.47;1760495;79;21028;-70
2021/12/25 10:07:27;;;;;;;6.75;4.60;;;;;;;-2.71;89.44;98754.42;1746270;79;21335;-70
2021/12/25 10:10:01;;;;;;;9.63;4.05;;;;;;;-2.53;89.56;98751.67;1784060;77;20886;-69
2021/12/25 10:12:40;;;;;;;4.60;2.87;;;;;;;-2.36;89.57;98751.49;1796818;77;20954;-70
2021/12/25 10:15:08;;;;;;;3.73;2.73;;;;;;;-2.23;89.54;98757.33;1795345;77;20932;-70
2021/12/25 10:17:39;;;;;;;6.22;3.10;;;;;;;-2.14;89.52;98741.88;1798760;77;20981;-69
2021/12/25 10:20:16;;;;;;;11.10;5.78;;;;;;;-2.07;89.35;98744.79;1791338;77;21544;-70
2021/12/25 10:23:12;;;;;;;4.83;2.37;;;;;;;-2.04;89.38;98739.63;1815927;77;21466;-67
2021/12/25 10:25:49;;;;;;;8.98;4.20;;;;;;;-1.95;89.48;98749.34;1800528;77;20934;-67
2021/12/25 10:28:23;;;;;;;5.90;2.87;;;;;;;-1.75;89.77;98747.36;1802403;77;21876;-69
2021/12/25 10:31:01;;;;;;;5.15;3.12;;;;;;;-1.42;89.98;98752.89;1809085;77;20906;-69
2021/12/25 10:33:44;;;;;;;3.65;2.08;;;;;;;-1.18;89.79;98749.94;1796033;77;21138;-69
2021/12/25 10:36:28;;;;;;;6.62;3.42;;;;;;;-0.91;89.77;98745.27;1791891;77;20992;-69
2021/12/25 10:39:03;;;;;;;6.12;3.65;;;;;;;-0.84;89.06;98745.59;1804654;77;20894;-69
2021/12/25 10:41:35;;;;;;;10.35;5.22;;;;;;;-0.81;88.87;98741.69;1784723;77;21387;-69
2021/12/25 10:44:19;;;;;;;14.55;7.10;;;;;;;-0.97;88.31;98737.24;1797556;77;20947;-69
2021/12/25 10:46:54;;;;;;;11.28;4.08;;;;;;;-1.04;88.37;98739.92;1796440;77;21160;-69
2021/12/25 10:49:25;;;;;;;9.18;2.92;;;;;;;-0.99;88.61;98741.98;1807702;77;20960;-69
2021/12/25 10:51:54;;;;;;;7.50;3.08;;;;;;;-0.97;88.66;98744.09;1760424;79;21041;-69
2021/12/25 10:54:38;;;;;;;6.05;2.95;;;;;;;-0.92;88.88;98746.15;1798818;77;20938;-62
2021/12/25 10:57:06;;;;;;;9.50;2.92;;;;;;;-0.78;89.18;98744.20;1803568;77;20983;-61
2021/12/25 10:59:49;;;;;;;9.38;3.20;;;;;;;-0.70;89.03;98739.78;1807475;77;21164;-62
2021/12/25 11:02:33;;;;;;;7.72;4.20;;;;;;;-0.73;88.69;98741.53;1806152;77;20901;-61
2021/12/25 11:05:22;;;;;;;7.40;3.80;;;;;;;-0.83;88.43;98751.11;1807848;77;21494;-61
2021/12/25 11:08:07;;;;;;;9.78;3.65;;;;;;;-0.93;88.52;98747.00;1809114;77;20917;-62
2021/12/25 11:10:50;;;;;;;4.85;3.35;;;;;;;-1.04;88.40;98748.89;1798709;77;20924;-62
2021/12/25 11:13:38;;;;;;;7.67;3.12;;;;;;;-1.15;88.52;98742.24;1802577;77;21021;-62
2021/12/25 11:16:26;;;;;;;6.60;3.17;;;;;;;-1.18;88.59;98754.23;1798330;77;20955;-62
2021/12/25 11:19:05;;;;;;;5.45;2.98;;;;;;;-1.19;88.78;98757.67;1787392;77;20948;-62
2021/12/25 11:21:49;;;;;;;6.15;2.40;;;;;;;-1.27;88.66;98762.90;1809234;77;20891;-62
2021/12/25 11:24:31;;;;;;;6.12;2.87;;;;;;;-1.28;88.76;98771.46;1808834;77;20887;-61
2021/12/25 11:27:02;;;;;;;7.15;3.52;;;;;;;-1.25;88.91;98766.30;1806856;77;21384;-62
2021/12/25 11:29:33;;;;;;;8.48;4.70;;;;;;;-1.18;88.93;98767.88;1796547;77;21466;-62
2021/12/25 11:32:03;;;;;;;7.33;4.15;;;;;;;-1.10;89.06;98772.05;1805920;77;21632;-61
2021/12/25 11:34:30;;;;;;;9.78;3.92;;;;;;;-1.08;88.91;98768.59;1815393;77;20948;-61
2021/12/25 11:37:00;;;;;;;13.68;4.72;;;;;;;-1.10;88.70;98769.48;1802037;77;21455;-62
2021/12/25 11:39:29;;;;;;;20.02;6.75;;;;;;;-1.14;88.70;98773.82;1812958;77;21741;-62
2021/12/25 11:42:03;;;;;;;35.60;11.78;;;;;;;-1.15;88.80;98767.86;1805985;77;20910;-61
2021/12/25 11:44:45;;;;;;;19.75;7.25;;;;;;;-1.10;88.94;98771.61;1813269;77;20961;-61
2021/12/25 11:47:41;;;;;;;11.70;4.40;;;;;;;-1.07;88.98;98782.25;1811635;77;20903;-62
2021/12/25 11:50:16;;;;;;;7.35;4.00;;;;;;;-1.04;88.91;98777.91;1808177;77;20966;-62
2021/12/25 11:52:54;;;;;;;6.53;3.27;;;;;;;-1.00;88.88;98787.27;1804252;77;21691;-62
2021/12/25 11:58:39;;;;;;;8.03;4.30;;;;;;;-1.01;88.87;98784.70;1798823;77;20949;-61
2021/12/25 12:01:29;;;;;;;11.20;4.85;;;;;;;-1.02;88.82;98783.03;1801459;77;20919;-62
2021/12/25 12:04:19;;;;;;;18.55;5.92;;;;;;;-1.11;88.58;98781.45;1798516;77;21531;-62
2021/12/25 12:06:56;;;;;;;14.30;4.25;;;;;;;-1.22;88.49;98794.42;1797901;77;21076;-61
2021/12/25 12:09:33;;;;;;;13.35;4.25;;;;;;;-1.37;88.44;98789.53;1798986;77;21041;-60
2021/12/25 12:12:17;;;;;;;9.63;3.50;;;;;;;-1.47;88.44;98796.91;1797451;77;20934;-62
2021/12/25 12:14:44;;;;;;;9.05;3.40;;;;;;;-1.58;88.46;98798.33;1814503;77;21394;-60
2021/12/25 12:17:22;;;;;;;7.40;3.60;;;;;;;-1.66;88.45;98803.55;1822420;77;20867;-62
2021/12/25 12:19:53;;;;;;;10.03;6.10;;;;;;;-1.72;88.53;98806.19;1819868;77;21221;-61
2021/12/25 12:22:34;;;;;;;9.43;3.55;;;;;;;-1.77;88.55;98800.27;1817166;77;21602;-62
2021/12/25 12:26:01;;;;;;;9.90;4.05;;;;;;;-1.81;88.56;98806.30;1813257;77;21037;-62
2021/12/25 12:27:59;;;;;;;6.92;3.25;;;;;;;-1.91;88.50;98802.16;1793608;77;20887;-61
2021/12/25 12:30:43;;;;;;;8.90;3.70;;;;;;;-1.99;88.50;98796.27;1803570;77;20883;-62
2021/12/25 12:33:21;;;;;;;9.85;4.62;;;;;;;-2.04;88.60;98797.19;1799807;77;21075;-62
2021/12/25 12:35:51;;;;;;;9.23;3.85;;;;;;;-2.09;88.56;98810.89;1812464;77;21092;-61
2021/12/25 12:38:47;;;;;;;8.03;3.98;;;;;;;-2.24;88.44;98806.80;1790464;77;21505;-61
2021/12/25 12:41:34;;;;;;;6.95;3.67;;;;;;;-2.32;88.56;98811.14;1800038;77;20952;-61
2021/12/25 12:44:20;;;;;;;9.43;3.27;;;;;;;-2.42;88.51;98819.75;1801219;77;21495;-61
2021/12/25 12:46:53;;;;;;;7.25;3.50;;;;;;;-2.48;88.60;98823.20;1797504;77;21094;-61
2021/12/25 12:49:25;;;;;;;11.83;3.55;;;;;;;-2.58;88.61;98822.42;1814295;77;20935;-61
2021/12/25 12:52:25;;;;;;;8.50;3.60;;;;;;;-2.63;88.74;98824.20;1774947;77;20943;-61
2021/12/25 12:55:11;;;;;;;6.65;3.08;;;;;;;-2.70;88.69;98819.98;1790385;77;20885;-61
2021/12/25 12:57:42;;;;;;;9.30;3.98;;;;;;;-2.78;88.72;98829.42;1799952;78;20934;-61
2021/12/25 13:00:27;;;;;;;11.05;3.58;;;;;;;-2.86;88.77;98831.19;1801565;78;21163;-61
2021/12/25 13:02:56;;;;;;;7.70;3.40;;;;;;;-2.92;88.82;98830.36;1811008;77;21470;-61
2021/12/25 13:05:38;;;;;;;6.78;3.08;;;;;;;-2.96;88.89;98827.42;1815675;77;21407;-61